Time;durP1;ratioP1;P1;durP2;ratioP2;P2;SDS_P1;SDS_P2;PMS_P1;PMS_P2;Temp;Humidity;BMP_temperature;BMP_pressure;BME280_temperature;BME280_humidity;BME280_pressure;Samples;Min_cycle;Max_cycle;Signal;HPM_P1;HPM_P2
2022/04/20 00:01:22;;;;;;;;;27.75;23.00;;;;;12.30;60.33;100986.31;5071517;27;45405;-69
2022/04/20 00:03:48;;;;;;;;;27.50;22.50;;;;;12.36;59.82;100987.53;5071429;28;45517;-69
2022/04/20 00:06:13;;;;;;;;;28.25;25.25;;;;;12.40;59.67;100989.84;5067750;28;45340;-69
2022/04/20 00:08:39;;;;;;;;;28.75;27.75;;;;;12.30;60.48;100986.31;5066508;27;45551;-70
2022/04/20 00:11:04;;;;;;;;;29.75;27.50;;;;;12.17;60.76;100969.47;5072391;28;45282;-69
2022/04/20 00:13:29;;;;;;;;;34.50;28.50;;;;;12.21;60.82;100980.91;5067842;28;46870;-69
2022/04/20 00:15:55;;;;;;;;;29.25;24.75;;;;;12.25;60.81;100980.47;5074443;28;45471;-69
2022/04/20 00:18:20;;;;;;;;;28.25;25.25;;;;;12.29;60.23;100981.84;5075977;27;45325;-70
2022/04/20 00:20:46;;;;;;;;;30.00;25.75;;;;;12.23;60.44;100981.63;5069453;27;45441;-70
2022/04/20 00:23:11;;;;;;;;;37.75;29.25;;;;;12.19;60.66;100977.50;5073172;28;46163;-69
2022/04/20 00:25:36;;;;;;;;;28.75;27.25;;;;;12.12;60.80;100974.53;5072729;27;45250;-69
2022/04/20 00:28:02;;;;;;;;;31.75;26.00;;;;;12.08;61.53;100978.56;5081113;27;45618;-69
2022/04/20 00:30:27;;;;;;;;;35.50;30.50;;;;;12.16;61.14;100985.97;5082059;27;45167;-69
2022/04/20 00:32:53;;;;;;;;;31.00;29.00;;;;;12.08;61.14;100979.41;5071749;28;45256;-70
2022/04/20 00:35:18;;;;;;;;;34.00;31.50;;;;;12.00;61.92;100984.75;5072747;27;45231;-70
2022/04/20 00:37:45;;;;;;;;;30.50;28.75;;;;;12.01;61.52;100972.00;5070394;28;45416;-69
2022/04/20 00:40:11;;;;;;;;;35.50;32.00;;;;;11.99;61.74;100979.47;5073277;28;45364;-69
2022/04/20 00:42:40;;;;;;;;;30.50;21.50;;;;;11.90;61.66;100966.78;5068648;28;45510;-69
2022/04/20 00:45:09;;;;;;;;;30.75;27.75;;;;;11.95;61.88;100976.19;5079815;28;45320;-69
2022/04/20 00:47:42;;;;;;;;;42.25;31.75;;;;;11.90;62.28;100969.50;5066936;28;45467;-69
2022/04/20 00:50:09;;;;;;;;;31.75;30.00;;;;;11.83;62.57;100971.97;5093284;27;45259;-69
2022/04/20 00:52:35;;;;;;;;;33.00;30.50;;;;;11.80;62.59;100963.25;5070159;28;47643;-70
2022/04/20 00:55:00;;;;;;;;;37.25;31.00;;;;;11.84;62.08;100970.09;5065526;28;45444;-71
2022/04/20 00:57:26;;;;;;;;;44.25;37.50;;;;;11.81;61.89;100956.78;5073772;28;45330;-69
2022/04/20 00:59:53;;;;;;;;;33.75;29.50;;;;;11.76;62.49;100962.72;5068858;27;45236;-69
2022/04/20 01:02:21;;;;;;;;;48.25;34.25;;;;;11.75;62.55;100961.00;5067859;28;48704;-69
2022/04/20 01:04:47;;;;;;;;;42.75;35.25;;;;;11.76;62.75;100961.84;5067071;28;45366;-68
2022/04/20 01:07:14;;;;;;;;;38.50;33.25;;;;;11.75;62.52;100962.84;5071649;28;45323;-69
2022/04/20 01:09:44;;;;;;;;;39.25;34.50;;;;;11.69;62.98;100962.38;5079024;28;45508;-69
2022/04/20 01:12:12;;;;;;;;;35.25;30.00;;;;;11.70;62.66;100964.09;5069858;28;46138;-69
2022/04/20 01:14:39;;;;;;;;;43.50;35.75;;;;;11.59;63.41;100953.44;5077422;28;45436;-69
2022/04/20 01:17:05;;;;;;;;;35.00;29.75;;;;;11.60;63.66;100957.00;5070668;28;45489;-69
2022/04/20 01:19:34;;;;;;;;;36.25;33.75;;;;;11.63;63.74;100963.00;5068737;27;45508;-70
2022/04/20 01:22:03;;;;;;;;;44.50;34.50;;;;;11.53;64.08;100954.03;5068461;28;49440;-69
2022/04/20 01:24:29;;;;;;;;;40.75;35.25;;;;;11.53;63.76;100945.88;5074946;28;45287;-68
2022/04/20 01:26:56;;;;;;;;;42.00;35.00;;;;;11.47;64.34;100951.88;5068869;28;45462;-70
2022/04/20 01:29:21;;;;;;;;;47.00;35.50;;;;;11.42;64.62;100951.47;5082830;27;45419;-69
2022/04/20 01:31:47;;;;;;;;;41.50;35.50;;;;;11.37;64.97;100944.78;5068307;28;47068;-69
2022/04/20 01:34:12;;;;;;;;;37.25;33.00;;;;;11.33;65.16;100952.38;5073866;27;45273;-69
2022/04/20 01:36:37;;;;;;;;;37.00;34.25;;;;;11.36;64.86;100957.53;5070500;28;45230;-69
2022/04/20 01:39:03;;;;;;;;;35.75;31.75;;;;;11.30;65.41;100952.69;5071913;27;45896;-69
2022/04/20 01:41:28;;;;;;;;;30.75;24.25;;;;;11.23;65.45;100940.69;5067122;28;45451;-69
2022/04/20 01:43:53;;;;;;;;;46.00;36.00;;;;;11.31;64.95;100947.09;5069425;28;45396;-69
2022/04/20 01:46:19;;;;;;;;;37.25;34.00;;;;;11.31;65.17;100957.13;5067228;28;45364;-69
2022/04/20 01:48:44;;;;;;;;;41.00;34.00;;;;;11.24;65.15;100953.28;5074032;27;45511;-69
2022/04/20 01:53:53;;;;;;;;;40.75;35.50;;;;;11.29;65.52;100957.25;5080745;28;45430;-69
2022/04/20 01:56:19;;;;;;;;;44.75;36.25;;;;;11.29;64.96;100950.97;5081668;27;45518;-69
2022/04/20 01:58:45;;;;;;;;;47.25;36.25;;;;;11.29;64.19;100948.25;5073685;28;45385;-69
2022/04/20 02:03:54;;;;;;;;;46.75;36.00;;;;;11.19;65.57;100947.41;5066582;28;45525;-69
2022/04/20 02:06:19;;;;;;;;;35.25;33.00;;;;;11.20;64.90;100949.13;5070943;28;45489;-70
2022/04/20 02:08:44;;;;;;;;;44.50;37.25;;;;;11.21;65.11;100943.53;5083591;27;45334;-69
2022/04/20 02:11:10;;;;;;;;;50.50;39.25;;;;;11.26;64.98;100959.41;5070488;27;46114;-69
2022/04/20 02:13:35;;;;;;;;;50.50;38.50;;;;;11.15;65.30;100948.72;5075073;28;45234;-69
2022/04/20 02:16:00;;;;;;;;;54.00;43.50;;;;;11.13;65.11;100956.16;5080362;28;45365;-69
2022/04/20 02:18:26;;;;;;;;;42.50;36.75;;;;;11.14;65.61;100947.00;5078980;27;45385;-69
2022/04/20 02:20:52;;;;;;;;;55.00;41.75;;;;;11.09;65.74;100935.72;5070141;27;46709;-69
2022/04/20 02:23:17;;;;;;;;;49.25;40.00;;;;;10.95;65.62;100911.72;5076438;27;45425;-69
2022/04/20 02:25:43;;;;;;;;;46.00;38.75;;;;;11.00;65.95;100936.59;5069997;27;45362;-69
2022/04/20 02:28:08;;;;;;;;;49.00;39.75;;;;;10.92;66.30;100926.44;5078232;27;46174;-69
2022/04/20 02:30:33;;;;;;;;;48.50;37.25;;;;;10.96;66.40;100929.75;5070335;27;45445;-69
2022/04/20 02:32:59;;;;;;;;;49.00;39.75;;;;;10.90;66.84;100932.03;5071428;28;45333;-69
2022/04/20 02:35:24;;;;;;;;;50.00;41.50;;;;;10.84;66.71;100921.75;5070962;27;45242;-69
2022/04/20 02:37:50;;;;;;;;;53.50;40.50;;;;;10.86;66.70;100917.03;5067557;28;45302;-69
2022/04/20 02:40:15;;;;;;;;;51.50;39.00;;;;;10.81;66.90;100911.16;5077557;28;45246;-69
2022/04/20 02:42:41;;;;;;;;;53.50;40.50;;;;;10.80;66.92;100924.91;5072777;27;45199;-70
2022/04/20 02:45:06;;;;;;;;;54.75;44.50;;;;;10.78;67.31;100927.75;5070725;28;45401;-70
2022/04/20 02:47:32;;;;;;;;;49.50;40.75;;;;;10.76;67.25;100908.00;5071798;28;45453;-70
2022/04/20 02:49:57;;;;;;;;;54.00;37.75;;;;;10.78;66.83;100906.03;5065867;28;46715;-69
2022/04/20 02:52:23;;;;;;;;;56.75;44.50;;;;;10.82;66.90;100909.28;5071081;28;45345;-70
2022/04/20 02:54:48;;;;;;;;;52.25;40.75;;;;;10.76;66.73;100894.44;5067336;27;45315;-70
2022/04/20 02:57:13;;;;;;;;;54.50;43.25;;;;;10.79;67.10;100904.16;5074861;28;45430;-70
2022/04/20 02:59:39;;;;;;;;;53.75;43.75;;;;;10.74;67.28;100901.84;5062228;28;47898;-70
2022/04/20 03:02:05;;;;;;;;;56.75;42.00;;;;;10.60;67.27;100886.00;5068367;28;45393;-70
2022/04/20 03:04:31;;;;;;;;;60.00;46.25;;;;;10.69;67.39;100909.59;5073109;27;45409;-70
2022/04/20 03:06:56;;;;;;;;;63.75;45.75;;;;;10.64;67.21;100917.34;5071537;28;45398;-70
2022/04/20 03:09:21;;;;;;;;;61.50;48.00;;;;;10.57;67.79;100902.63;5076224;28;45282;-70
2022/04/20 03:11:47;;;;;;;;;58.00;41.75;;;;;10.56;67.80;100911.78;5067946;27;45274;-70
2022/04/20 03:14:13;;;;;;;;;61.25;50.25;;;;;10.51;67.69;100893.19;5070410;28;45451;-70
2022/04/20 03:16:38;;;;;;;;;56.00;47.00;;;;;10.58;67.50;100898.91;5066002;28;45318;-70
2022/04/20 03:19:04;;;;;;;;;59.75;48.00;;;;;10.54;67.58;100894.75;5079371;28;45361;-70
2022/04/20 03:21:30;;;;;;;;;63.00;48.25;;;;;10.47;67.84;100896.31;5077685;28;45329;-70
2022/04/20 03:23:55;;;;;;;;;63.00;47.00;;;;;10.36;68.65;100886.50;5077522;28;45552;-70
2022/04/20 03:26:20;;;;;;;;;58.50;47.00;;;;;10.39;69.17;100893.47;5066268;27;45327;-70
2022/04/20 03:28:45;;;;;;;;;61.75;50.50;;;;;10.42;68.67;100904.06;5082008;27;46344;-70
2022/04/20 03:31:11;;;;;;;;;52.25;42.00;;;;;10.39;68.87;100893.47;5065627;27;45442;-70
2022/04/20 03:33:37;;;;;;;;;61.25;46.25;;;;;10.46;68.63;100905.47;5075935;28;45330;-70
2022/04/20 03:36:05;;;;;;;;;58.50;47.00;;;;;10.46;68.49;100913.63;5064941;27;45258;-69
2022/04/20 03:38:31;;;;;;;;;60.25;47.75;;;;;10.45;68.59;100914.63;5071169;27;46606;-70
2022/04/20 03:40:57;;;;;;;;;58.25;44.25;;;;;10.47;68.54;100918.91;5078581;28;46271;-70
2022/04/20 03:43:23;;;;;;;;;59.75;46.75;;;;;10.45;68.24;100914.63;5069978;28;45508;-70
2022/04/20 03:45:49;;;;;;;;;63.25;52.00;;;;;10.49;67.85;100919.63;5064038;27;45301;-70
2022/04/20 03:48:14;;;;;;;;;60.00;48.25;;;;;10.43;68.33;100927.50;5073647;27;45429;-70
2022/04/20 03:50:40;;;;;;;;;63.50;49.00;;;;;10.45;68.28;100931.78;5078551;28;45334;-70
2022/04/20 03:53:05;;;;;;;;;59.25;47.50;;;;;10.43;68.17;100928.38;5074079;27;45294;-70
2022/04/20 03:55:30;;;;;;;;;61.50;45.25;;;;;10.46;68.27;100922.63;5063306;28;45235;-69
2022/04/20 03:57:56;;;;;;;;;63.25;47.75;;;;;10.51;67.77;100928.50;5073509;28;46247;-70
2022/04/20 04:00:23;;;;;;;;;62.25;46.75;;;;;10.52;67.71;100935.63;5065954;28;45291;-70
2022/04/20 04:02:49;;;;;;;;;66.75;50.00;;;;;10.48;68.32;100934.22;5077615;28;45444;-70
2022/04/20 04:05:14;;;;;;;;;61.25;46.00;;;;;10.49;67.69;100938.66;5068813;27;45601;-70
2022/04/20 04:07:41;;;;;;;;;63.75;46.50;;;;;10.32;68.83;100935.78;5071362;28;48054;-70
2022/04/20 04:10:07;;;;;;;;;58.75;44.75;;;;;10.23;69.32;100939.38;5079236;28;45276;-69
2022/04/20 04:12:33;;;;;;;;;65.75;49.00;;;;;10.39;68.64;100935.06;5069537;28;45403;-69
2022/04/20 04:14:58;;;;;;;;;59.50;46.50;;;;;10.36;68.56;100931.78;5078743;28;45319;-70
2022/04/20 04:17:23;;;;;;;;;63.00;47.25;;;;;10.42;68.42;100928.50;5078198;28;46288;-71
2022/04/20 04:19:49;;;;;;;;;67.00;50.25;;;;;10.36;68.65;100916.34;5078041;27;45347;-70
2022/04/20 04:22:14;;;;;;;;;57.75;46.00;;;;;10.28;69.09;100907.22;5072549;28;45238;-70
2022/04/20 04:24:40;;;;;;;;;62.00;51.25;;;;;10.33;68.99;100915.78;5079553;27;45521;-70
2022/04/20 04:27:08;;;;;;;;;63.00;48.00;;;;;10.36;68.59;100907.34;5074086;28;47156;-70
2022/04/20 04:29:34;;;;;;;;;65.50;49.75;;;;;10.45;68.51;100920.06;5089285;27;45380;-69
2022/04/20 04:32:01;;;;;;;;;61.25;49.75;;;;;10.44;67.92;100916.50;5079354;27;45427;-70
2022/04/20 04:34:27;;;;;;;;;69.00;52.75;;;;;10.49;68.15;100929.66;5074070;27;45488;-70
2022/04/20 04:36:56;;;;;;;;;61.50;48.00;;;;;10.48;68.27;100930.66;5068622;28;46781;-70
2022/04/20 04:39:22;;;;;;;;;65.00;49.00;;;;;10.50;68.00;100929.50;5073235;27;45680;-70
2022/04/20 04:41:51;;;;;;;;;68.50;53.50;;;;;10.49;67.95;100926.94;5067934;28;45320;-70
2022/04/20 04:44:18;;;;;;;;;68.25;51.50;;;;;10.45;68.12;100925.47;5070610;27;45315;-70
2022/04/20 04:49:28;;;;;;;;;63.50;49.25;;;;;10.40;68.66;100934.06;5068928;28;45294;-71
2022/04/20 04:51:55;;;;;;;;;61.25;48.75;;;;;10.38;68.71;100933.34;5073408;28;45281;-69
2022/04/20 04:54:21;;;;;;;;;62.75;52.00;;;;;10.43;68.24;100955.53;5076547;27;45464;-69
2022/04/20 04:56:46;;;;;;;;;71.50;52.75;;;;;10.42;68.54;100951.09;5073476;28;46283;-69
2022/04/20 04:59:11;;;;;;;;;65.25;50.75;;;;;10.36;68.69;100957.09;5072620;28;45348;-69
2022/04/20 05:01:37;;;;;;;;;58.00;49.00;;;;;10.32;68.71;100946.63;5074824;28;45370;-69
2022/04/20 05:04:02;;;;;;;;;67.75;51.00;;;;;10.29;68.85;100941.50;5081953;28;45562;-69
2022/04/20 05:06:27;;;;;;;;;62.50;49.25;;;;;10.44;68.51;100940.09;5072119;27;46164;-69
2022/04/20 05:08:53;;;;;;;;;65.50;50.00;;;;;10.49;67.88;100935.06;5082790;27;45525;-72
2022/04/20 05:11:18;;;;;;;;;59.75;50.25;;;;;10.56;68.03;100949.81;5078062;27;45329;-69
2022/04/20 05:13:43;;;;;;;;;70.25;51.75;;;;;10.57;67.73;100945.22;5076301;27;45276;-70
2022/04/20 05:16:09;;;;;;;;;66.50;52.00;;;;;10.56;68.23;100936.22;5071038;27;45673;-68
2022/04/20 05:18:35;;;;;;;;;65.00;50.50;;;;;10.59;68.06;100930.50;5076994;27;45455;-68
2022/04/20 05:21:00;;;;;;;;;68.25;52.75;;;;;10.64;67.66;100939.06;5069928;27;45741;-69
2022/04/20 05:23:26;;;;;;;;;61.50;51.25;;;;;10.66;67.32;100937.09;5072433;28;45350;-68
2022/04/20 05:25:51;;;;;;;;;70.25;52.50;;;;;10.56;67.72;100929.94;5067799;28;47325;-69
2022/04/20 05:28:16;;;;;;;;;63.75;46.50;;;;;10.60;67.63;100934.06;5081280;27;45432;-70
2022/04/20 05:30:42;;;;;;;;;70.50;55.25;;;;;10.61;67.44;100927.63;5068989;27;45375;-69
2022/04/20 05:33:08;;;;;;;;;75.00;55.75;;;;;10.65;67.39;100940.81;5071569;28;45549;-69
2022/04/20 05:35:33;;;;;;;;;65.25;50.25;;;;;10.72;67.51;100944.66;5079295;28;47657;-68
2022/04/20 05:43:26;;;;;;;;;72.25;54.50;;;;;10.90;66.45;100956.47;5068385;28;45435;-69
2022/04/20 05:45:52;;;;;;;;;71.00;54.50;;;;;10.88;66.18;100955.75;5064090;27;46045;-68
2022/04/20 05:48:17;;;;;;;;;65.75;53.75;;;;;10.96;66.33;100956.94;5072872;28;45361;-69
2022/04/20 05:50:43;;;;;;;;;62.50;47.25;;;;;10.93;66.08;100955.34;5063692;28;45476;-68
2022/04/20 05:53:09;;;;;;;;;73.50;56.25;;;;;10.97;66.14;100950.47;5074962;28;45397;-69
2022/04/20 05:55:35;;;;;;;;;74.00;56.75;;;;;10.91;65.47;100960.94;5081578;28;46863;-68
2022/04/20 05:58:00;;;;;;;;;74.50;57.50;;;;;10.96;65.32;100962.38;5075559;27;45325;-68
2022/04/20 06:00:26;;;;;;;;;73.50;55.50;;;;;11.21;65.13;100959.00;5079095;27;45207;-70
2022/04/20 06:02:52;;;;;;;;;73.25;55.00;;;;;11.33;64.50;100952.38;5075233;28;45640;-70
2022/04/20 06:05:18;;;;;;;;;69.50;53.75;;;;;11.50;64.00;100948.88;5079025;28;48340;-71
2022/04/20 06:08:30;;;;;;;;;66.75;52.50;;;;;11.68;63.34;100949.81;5069009;28;45366;-70
2022/04/20 06:10:57;;;;;;;;;68.75;53.00;;;;;11.80;62.58;100936.03;5063562;28;45430;-69
2022/04/20 06:13:23;;;;;;;;;69.50;54.50;;;;;11.77;62.52;100926.28;5074663;28;45478;-68
2022/04/20 06:15:49;;;;;;;;;62.75;47.50;;;;;11.69;62.25;100924.28;5081836;27;45384;-70
2022/04/20 06:18:14;;;;;;;;;66.25;49.75;;;;;11.66;61.65;100935.50;5075982;28;45437;-68
2022/04/20 06:20:40;;;;;;;;;65.25;49.25;;;;;11.61;61.88;100932.38;5071263;27;45347;-69
2022/04/20 06:23:05;;;;;;;;;70.00;52.25;;;;;11.65;61.68;100936.50;5070454;28;46223;-71
2022/04/20 06:25:31;;;;;;;;;69.25;53.50;;;;;11.77;61.69;100942.63;5063011;28;46339;-68
2022/04/20 06:27:56;;;;;;;;;65.50;53.00;;;;;11.87;61.07;100943.44;5076850;27;45209;-68
2022/04/20 06:30:22;;;;;;;;;65.25;53.00;;;;;11.82;60.72;100942.19;5071185;27;45334;-69
2022/04/20 06:32:47;;;;;;;;;71.75;54.00;;;;;11.98;61.04;100950.56;5068758;28;45607;-69
2022/04/20 06:35:13;;;;;;;;;63.00;51.25;;;;;12.12;60.51;100946.44;5075270;28;46650;-69
2022/04/20 06:37:38;;;;;;;;;63.75;50.25;;;;;12.16;59.92;100934.22;5067176;28;45183;-70
2022/04/20 06:40:04;;;;;;;;;70.75;52.00;;;;;12.31;60.23;100947.16;5067723;28;45561;-71
2022/04/20 06:42:30;;;;;;;;;58.75;48.25;;;;;12.43;59.45;100939.59;5065784;28;45532;-68
2022/04/20 06:44:56;;;;;;;;;74.25;55.75;;;;;12.34;59.53;100938.69;5067329;28;47926;-69
2022/04/20 06:47:22;;;;;;;;;71.00;56.50;;;;;12.49;59.50;100942.56;5064607;28;45470;-69
2022/04/20 06:49:47;;;;;;;;;64.50;50.00;;;;;12.37;58.88;100935.63;5061242;28;45274;-71
2022/04/20 07:00:25;;;;;;;;;63.25;47.50;;;;;13.35;56.42;100939.16;5062480;28;45295;-70
2022/04/20 07:03:06;;;;;;;;;59.75;47.75;;;;;13.47;56.11;100940.59;5077523;28;45556;-70
2022/04/20 07:05:32;;;;;;;;;61.75;47.75;;;;;13.86;55.99;100939.06;5074217;28;45499;-70
2022/04/20 07:07:57;;;;;;;;;60.75;48.75;;;;;14.22;54.87;100945.16;5069823;27;45405;-70
2022/04/20 07:10:23;;;;;;;;;64.25;49.00;;;;;14.45;53.50;100939.94;5074027;27;45636;-70
2022/04/20 07:12:50;;;;;;;;;65.00;48.50;;;;;14.39;52.72;100926.94;5070403;28;45429;-70
2022/04/20 07:15:15;;;;;;;;;59.00;46.50;;;;;14.38;53.21;100936.19;5073420;27;46527;-69
2022/04/20 07:17:40;;;;;;;;;59.50;48.00;;;;;14.27;52.32;100933.72;5066742;28;45398;-70
2022/04/20 07:20:06;;;;;;;;;59.25;46.50;;;;;14.20;52.10;100943.59;5070363;27;45304;-70
2022/04/20 07:22:31;;;;;;;;;60.50;46.75;;;;;14.13;52.53;100928.91;5068286;28;45403;-70
2022/04/20 07:24:57;;;;;;;;;58.75;47.50;;;;;14.04;52.90;100942.53;5068801;28;47528;-70
2022/04/20 07:27:22;;;;;;;;;53.75;41.00;;;;;14.14;53.33;100941.53;5084526;27;45423;-70
2022/04/20 07:29:47;;;;;;;;;53.75;44.25;;;;;14.29;52.55;100937.16;5085810;27;45723;-69
2022/04/20 07:32:13;;;;;;;;;50.00;41.25;;;;;14.53;52.21;100959.09;5070394;27;45626;-69
2022/04/20 07:34:38;;;;;;;;;47.25;36.50;;;;;14.75;51.24;100952.97;5067376;28;45814;-71
2022/04/20 07:37:04;;;;;;;;;54.75;43.00;;;;;14.85;51.82;100946.44;5070056;28;45484;-70
2022/04/20 07:39:29;;;;;;;;;45.75;38.50;;;;;15.05;51.35;100950.56;5074961;27;45475;-70
2022/04/20 07:41:54;;;;;;;;;45.25;39.25;;;;;15.24;50.51;100947.44;5074907;28;45396;-70
2022/04/20 07:44:20;;;;;;;;;53.00;42.00;;;;;15.28;49.68;100947.94;5074990;27;45697;-70
2022/04/20 07:46:45;;;;;;;;;51.50;42.00;;;;;15.36;49.81;100954.25;5064598;28;45343;-70
2022/04/20 07:51:55;;;;;;;;;44.00;36.50;;;;;15.52;48.75;100942.41;5065714;28;45341;-70
2022/04/20 07:54:21;;;;;;;;;43.50;37.00;;;;;15.36;48.32;100935.09;5070599;27;45447;-70
2022/04/20 07:56:46;;;;;;;;;42.25;35.25;;;;;15.68;48.66;100950.63;5065067;28;45481;-69
2022/04/20 07:59:11;;;;;;;;;48.00;38.75;;;;;15.79;48.04;100949.34;5071697;28;45485;-70
2022/04/20 08:01:36;;;;;;;;;39.25;36.00;;;;;15.85;47.62;100944.03;5066353;28;45542;-70
2022/04/20 08:04:02;;;;;;;;;39.25;34.75;;;;;16.04;47.84;100950.97;5068793;28;47931;-70
2022/04/20 08:06:27;;;;;;;;;50.00;37.75;;;;;16.21;47.38;100949.00;5066982;28;45184;-70
2022/04/20 08:08:53;;;;;;;;;39.75;33.25;;;;;16.50;45.94;100951.06;5080168;28;45484;-70
2022/04/20 08:11:18;;;;;;;;;50.00;36.50;;;;;16.67;45.99;100945.28;5069047;27;45385;-70
2022/04/20 08:16:29;;;;;;;;;49.50;39.00;;;;;17.07;44.87;100940.50;5066184;28;45519;-70
2022/04/20 08:18:54;;;;;;;;;43.50;35.75;;;;;17.13;44.22;100928.75;5077899;28;45235;-71
2022/04/20 08:21:20;;;;;;;;;44.50;37.00;;;;;16.99;43.96;100938.69;5065999;28;45298;-70
2022/04/20 08:23:45;;;;;;;;;43.75;34.50;;;;;17.09;44.37;100942.00;5064548;28;45572;-70
2022/04/20 08:26:10;;;;;;;;;38.50;33.00;;;;;17.46;44.91;100940.25;5077736;28;45146;-70
2022/04/20 08:28:36;;;;;;;;;38.50;32.00;;;;;17.77;43.89;100935.47;5081741;27;45457;-70
2022/04/20 08:31:01;;;;;;;;;33.00;28.00;;;;;17.97;43.18;100940.38;5064714;27;45293;-70
2022/04/20 08:33:26;;;;;;;;;37.00;34.25;;;;;18.13;41.89;100937.38;5070291;28;46444;-70
2022/04/20 08:35:52;;;;;;;;;33.75;29.75;;;;;18.39;42.18;100937.72;5076467;28;45398;-69
2022/04/20 08:38:17;;;;;;;;;37.25;32.00;;;;;18.67;40.71;100938.69;5070567;28;45480;-70
2022/04/20 08:40:43;;;;;;;;;32.75;28.75;;;;;18.79;40.73;100933.50;5064871;28;45489;-69
2022/04/20 08:43:11;;;;;;;;;32.25;28.75;;;;;18.77;40.01;100930.13;5065454;28;45495;-69
2022/04/20 08:45:39;;;;;;;;;32.75;27.25;;;;;18.82;40.36;100935.00;5065158;28;45358;-69
2022/04/20 08:48:06;;;;;;;;;31.75;24.00;;;;;19.09;40.07;100939.69;5072887;27;45429;-69
2022/04/20 08:50:31;;;;;;;;;31.50;26.25;;;;;19.35;39.38;100928.91;5065573;28;45631;-69
2022/04/20 08:52:58;;;;;;;;;21.50;19.25;;;;;19.44;38.91;100935.94;5075795;28;46164;-71
2022/04/20 08:55:24;;;;;;;;;26.25;21.00;;;;;18.53;38.68;100942.31;5081537;28;45353;-69
2022/04/20 08:57:52;;;;;;;;;23.00;18.00;;;;;18.74;38.19;100940.66;5082029;27;45463;-69
2022/04/20 09:00:23;;;;;;;;;23.25;21.75;;;;;19.25;38.49;100928.38;5065799;27;46334;-69
2022/04/20 09:03:00;;;;;;;;;23.75;20.00;;;;;19.75;37.21;100935.53;5071275;28;46153;-69
2022/04/20 09:05:28;;;;;;;;;18.75;18.75;;;;;20.19;36.74;100929.56;5068211;28;45341;-70
2022/04/20 09:07:53;;;;;;;;;18.25;17.75;;;;;20.47;36.41;100932.22;5069694;28;45448;-70
2022/04/20 09:10:19;;;;;;;;;22.00;21.75;;;;;20.56;34.47;100932.91;5077423;28;45354;-70
2022/04/20 09:12:46;;;;;;;;;19.00;19.00;;;;;20.56;34.22;100938.41;5073737;28;45381;-70
2022/04/20 09:15:16;;;;;;;;;23.75;19.75;;;;;20.19;34.92;100942.50;5076762;27;45324;-71
2022/04/20 09:17:47;;;;;;;;;22.25;17.50;;;;;20.70;34.90;100944.81;5072108;28;45286;-70
2022/04/20 09:20:18;;;;;;;;;18.33;16.33;;;;;21.18;35.63;100942.78;5075149;28;45344;-70
2022/04/20 09:23:02;;;;;;;;;20.67;20.67;;;;;21.42;33.97;100927.44;5070825;28;46118;-70
2022/04/20 09:25:30;;;;;;;;;20.00;18.50;;;;;21.60;33.76;100931.25;5064879;28;45185;-70
2022/04/20 09:27:56;;;;;;;;;18.33;18.33;;;;;21.61;33.65;100921.88;5078646;27;45254;-70
2022/04/20 09:30:21;;;;;;;;;16.00;16.00;;;;;21.87;33.90;100937.53;5065126;28;45227;-70
2022/04/20 09:32:47;;;;;;;;;20.33;17.00;;;;;21.21;33.24;100932.13;5067745;28;45532;-70
2022/04/20 09:35:18;;;;;;;;;23.33;20.67;;;;;21.19;33.75;100933.41;5070839;28;45451;-70
2022/04/20 09:37:44;;;;;;;;;19.00;17.67;;;;;21.55;34.47;100922.72;5069879;28;45577;-70
2022/04/20 09:40:12;;;;;;;;;19.00;18.33;;;;;21.86;34.21;100921.16;5065202;28;45176;-70
2022/04/20 09:43:13;;;;;;;;;25.67;21.00;;;;;22.42;33.94;100925.00;5072773;28;45571;-70
2022/04/20 09:45:38;;;;;;;;;24.00;18.67;;;;;22.56;32.39;100923.00;5061807;28;45328;-70
2022/04/20 09:51:34;;;;;;;;;13.33;13.33;;;;;23.20;32.02;100917.19;5072835;28;45330;-69
2022/04/20 09:54:00;;;;;;;;;20.33;19.33;;;;;23.23;31.71;100911.19;5061109;28;45432;-70
2022/04/20 09:56:27;;;;;;;;;22.33;20.00;;;;;22.32;32.21;100908.00;5073375;28;45396;-69
2022/04/20 09:59:00;;;;;;;;;19.00;17.00;;;;;21.81;33.61;100907.13;5070189;28;45460;-69
2022/04/20 10:01:32;;;;;;;;;18.67;17.00;;;;;21.93;34.19;100899.84;5082391;27;45455;-70
2022/04/20 10:03:59;;;;;;;;;16.33;14.00;;;;;22.18;32.64;100894.47;5075027;27;45917;-70
2022/04/20 10:06:24;;;;;;;;;21.33;17.33;;;;;21.67;33.60;100907.19;5069627;27;45535;-69
2022/04/20 10:08:50;;;;;;;;;18.00;13.67;;;;;21.86;33.88;100899.03;5077935;27;45427;-69
2022/04/20 10:11:16;;;;;;;;;15.33;13.67;;;;;22.50;32.49;100897.00;5070047;27;45526;-70
2022/04/20 10:13:43;;;;;;;;;17.67;16.33;;;;;22.77;32.02;100907.97;5076965;27;45676;-70
2022/04/20 10:16:12;;;;;;;;;16.67;14.33;;;;;23.09;31.83;100904.06;5069582;28;45447;-69
2022/04/20 10:18:40;;;;;;;;;13.33;12.00;;;;;22.69;31.83;100899.88;5076394;28;45314;-69
2022/04/20 10:21:12;;;;;;;;;13.33;12.00;;;;;23.15;31.91;100886.53;5068844;27;45337;-68
2022/04/20 10:23:44;;;;;;;;;13.67;12.33;;;;;22.81;30.95;100896.19;5073516;28;48168;-70
2022/04/20 10:26:11;;;;;;;;;12.67;10.67;;;;;22.74;31.92;100900.09;5066574;28;45483;-69
2022/04/20 10:29:20;;;;;;;;;7.33;7.33;;;;;23.51;31.42;100887.72;5083379;27;45333;-70
2022/04/20 10:32:10;;;;;;;;;19.33;14.00;;;;;23.17;30.60;100883.53;5076245;28;45453;-70
2022/04/20 10:34:37;;;;;;;;;10.00;10.00;;;;;23.22;30.93;100890.09;5061851;28;47651;-70
2022/04/20 10:37:04;;;;;;;;;12.00;12.00;;;;;23.28;30.27;100886.41;5070315;28;45380;-70
2022/04/20 10:39:39;;;;;;;;;14.00;13.00;;;;;23.14;30.59;100882.06;5069783;28;46049;-70
2022/04/20 10:42:19;;;;;;;;;11.33;11.33;;;;;23.80;30.75;100888.88;5070685;28;45459;-70
2022/04/20 10:44:58;;;;;;;;;15.00;11.33;;;;;23.98;29.69;100877.75;5074053;27;47832;-70
2022/04/20 10:47:36;;;;;;;;;10.67;7.33;;;;;24.34;29.96;100876.84;5068202;28;45401;-69
2022/04/20 10:50:16;;;;;;;;;14.00;12.67;;;;;24.20;29.79;100880.91;5066409;27;45403;-69
2022/04/20 10:52:46;;;;;;;;;5.67;5.67;;;;;23.97;29.49;100857.47;5067795;28;45508;-70
2022/04/20 10:55:11;;;;;;;;;9.00;9.00;;;;;23.62;30.56;100865.59;5078432;28;47175;-69
2022/04/20 10:57:39;;;;;;;;;9.00;9.00;;;;;24.35;30.01;100862.75;5076141;27;45398;-70
2022/04/20 11:00:20;;;;;;;;;10.33;8.33;;;;;24.79;29.11;100861.41;5065585;27;45303;-70
2022/04/20 11:02:49;;;;;;;;;10.67;9.67;;;;;24.41;29.27;100858.16;5070259;28;45510;-70
2022/04/20 11:05:18;;;;;;;;;10.00;10.00;;;;;24.67;28.77;100851.38;5080631;27;45250;-68
2022/04/20 11:08:06;;;;;;;;;9.00;9.00;;;;;24.78;29.19;100843.03;5074632;27;45551;-69
2022/04/20 11:10:34;;;;;;;;;6.33;6.33;;;;;24.59;27.89;100844.22;5078890;28;45522;-69
2022/04/20 11:19:07;;;;;;;;;9.67;7.67;;;;;24.50;28.76;100845.63;5077794;28;45333;-69
2022/04/20 11:21:33;;;;;;;;;8.33;8.33;;;;;24.99;28.10;100832.44;5079475;27;45377;-68
2022/04/20 11:24:11;;;;;;;;;6.67;6.67;;;;;24.23;28.06;100831.31;5080127;27;45358;-69
2022/04/20 11:26:54;;;;;;;;;8.67;7.33;;;;;24.11;27.94;100824.81;5068788;28;45585;-68
2022/04/20 11:29:24;;;;;;;;;9.33;7.00;;;;;24.56;27.46;100832.72;5076636;27;45750;-68
2022/04/20 11:31:51;;;;;;;;;11.67;6.00;;;;;24.53;27.04;100817.41;5076142;27;45326;-69
2022/04/20 11:34:20;;;;;;;;;8.67;6.67;;;;;25.09;26.47;100813.25;5075862;27;45308;-70
2022/04/20 11:36:51;;;;;;;;;8.67;7.67;;;;;24.75;25.90;100818.53;5074108;27;46127;-70
2022/04/20 11:39:19;;;;;;;;;8.33;7.00;;;;;24.21;27.09;100829.84;5073882;28;45251;-69
2022/04/20 11:41:47;;;;;;;;;8.00;6.67;;;;;24.10;26.83;100827.84;5066470;28;45356;-70
2022/04/20 11:44:41;;;;;;;;;11.67;5.67;;;;;24.44;26.75;100827.16;5071434;27;45414;-70
2022/04/20 11:47:08;;;;;;;;;6.67;5.00;;;;;25.23;24.11;100813.84;5072338;27;45913;-69